Time;durP1;ratioP1;P1;durP2;ratioP2;P2;SDS_P1;SDS_P2;PMS_P1;PMS_P2;Temp;Humidity;BMP_temperature;BMP_pressure;BME280_temperature;BME280_humidity;BME280_pressure;Samples;Min_cycle;Max_cycle;Signal;HPM_P1;HPM_P2
2022/09/17 00:02:13;;;;;;;1.27;1.13;;;;;;;12.66;63.36;99819.22;5067961;28;20028;-16
2022/09/17 00:04:38;;;;;;;1.98;0.70;;;;;;;12.64;63.53;99813.09;5069159;28;20024;-17
2022/09/17 00:07:03;;;;;;;1.33;0.95;;;;;;;12.64;63.23;99815.75;5067415;28;20044;-16
2022/09/17 00:09:29;;;;;;;1.38;1.20;;;;;;;12.65;63.62;99811.34;5068032;28;20028;-16
2022/09/17 00:11:55;;;;;;;4.78;1.38;;;;;;;12.66;63.88;99818.34;5044590;28;20024;-16
2022/09/17 00:14:20;;;;;;;1.25;0.80;;;;;;;12.63;63.35;99819.31;5070132;28;20035;-16
2022/09/17 00:16:47;;;;;;;0.82;0.70;;;;;;;12.65;63.42;99819.25;5050239;28;20024;-16
2022/09/17 00:19:23;;;;;;;1.75;0.82;;;;;;;12.63;63.71;99818.44;5052747;28;20388;-16
2022/09/17 00:21:49;;;;;;;1.63;0.70;;;;;;;12.64;63.98;99818.38;5068011;28;20158;-16
2022/09/17 00:24:15;;;;;;;1.67;0.93;;;;;;;12.64;63.86;99821.03;5067922;28;20099;-17
2022/09/17 00:26:41;;;;;;;5.78;0.82;;;;;;;12.64;63.80;99823.69;5068437;28;20032;-16
2022/09/17 00:29:07;;;;;;;1.33;0.65;;;;;;;12.62;63.85;99819.34;5071389;28;20505;-16
2022/09/17 00:31:33;;;;;;;0.75;0.65;;;;;;;12.64;64.15;99821.03;5052005;28;20111;-17
2022/09/17 00:33:59;;;;;;;1.85;0.73;;;;;;;12.63;64.24;99821.97;5064071;28;20103;-16
2022/09/17 00:36:25;;;;;;;0.60;0.60;;;;;;;12.64;64.09;99818.38;5067413;28;20106;-16
2022/09/17 00:38:51;;;;;;;1.35;0.77;;;;;;;12.64;64.13;99815.75;5066513;28;20093;-17
2022/09/17 00:41:18;;;;;;;2.90;0.90;;;;;;;12.64;64.19;99815.75;5068444;28;20017;-16
2022/09/17 00:43:45;;;;;;;1.00;0.80;;;;;;;12.63;63.99;99816.66;5068399;28;20477;-16
2022/09/17 00:46:41;;;;;;;0.52;0.52;;;;;;;12.64;64.21;99814.91;5049335;28;20382;-16
2022/09/17 00:49:13;;;;;;;1.00;0.65;;;;;;;12.64;64.11;99814.91;5067191;28;20028;-17
2022/09/17 00:51:41;;;;;;;0.60;0.60;;;;;;;12.63;64.34;99816.66;5052175;28;20050;-16
2022/09/17 00:54:08;;;;;;;2.17;0.85;;;;;;;12.62;64.28;99809.66;5029933;28;20566;-16
2022/09/17 00:56:35;;;;;;;1.58;0.77;;;;;;;12.63;64.34;99818.44;5049634;28;20097;-16
2022/09/17 00:59:02;;;;;;;2.22;0.70;;;;;;;12.64;64.30;99817.53;5043329;28;20541;-16
2022/09/17 01:01:28;;;;;;;0.65;0.65;;;;;;;12.61;64.24;99809.69;5070163;28;20075;-16
2022/09/17 01:03:54;;;;;;;1.38;0.73;;;;;;;12.62;64.21;99817.59;5052439;28;20481;-16
2022/09/17 01:06:40;;;;;;;3.60;0.82;;;;;;;12.62;64.44;99816.72;5062064;28;20028;-16
2022/09/17 01:09:23;;;;;;;3.25;0.80;;;;;;;12.63;64.57;99816.66;5070047;28;20029;-16
2022/09/17 01:12:03;;;;;;;1.60;0.50;;;;;;;12.62;64.42;99817.59;5069186;28;20100;-16
2022/09/17 01:14:43;;;;;;;1.03;0.53;;;;;;;12.61;64.56;99815.00;5065955;28;20043;-17
2022/09/17 01:17:33;;;;;;;1.05;0.70;;;;;;;12.59;64.63;99820.31;5050694;28;20021;-16
2022/09/17 01:20:12;;;;;;;0.73;0.70;;;;;;;12.60;64.76;99823.84;5062732;28;20028;-16
2022/09/17 01:23:18;;;;;;;0.93;0.93;;;;;;;12.57;64.87;99820.38;5067279;28;20056;-17
2022/09/17 01:26:06;;;;;;;1.35;0.57;;;;;;;12.59;64.76;99812.38;5038078;28;20048;-16
2022/09/17 01:28:53;;;;;;;3.13;0.98;;;;;;;12.58;64.61;99818.59;5041366;28;20477;-16
2022/09/17 01:31:29;;;;;;;0.85;0.65;;;;;;;12.57;65.22;99819.50;5064489;28;20032;-16
2022/09/17 01:34:20;;;;;;;2.25;1.10;;;;;;;12.56;65.44;99823.06;5050228;28;20086;-16
2022/09/17 01:37:02;;;;;;;0.50;0.50;;;;;;;12.55;65.39;99821.34;5033046;28;20034;-16
2022/09/17 01:39:38;;;;;;;2.28;0.93;;;;;;;12.54;65.54;99832.84;5054774;28;20072;-16
2022/09/17 01:42:08;;;;;;;0.63;0.63;;;;;;;12.54;65.46;99825.75;5040050;28;20025;-16
2022/09/17 01:44:57;;;;;;;0.77;0.77;;;;;;;12.54;65.44;99830.19;5051172;28;20029;-17
2022/09/17 01:47:26;;;;;;;1.02;0.70;;;;;;;12.51;65.92;99832.91;5039000;28;20075;-16
2022/09/17 01:49:55;;;;;;;1.92;0.70;;;;;;;12.51;65.60;99825.00;5053985;28;20031;-16
2022/09/17 01:52:20;;;;;;;1.73;0.70;;;;;;;12.51;65.80;99830.28;5051217;28;20382;-16
2022/09/17 01:54:52;;;;;;;1.95;0.55;;;;;;;12.49;65.74;99824.16;5051513;28;20409;-16
2022/09/17 01:57:22;;;;;;;;;;;;;;;12.50;65.89;99837.34;5072669;28;20444;-16
2022/09/17 01:59:58;;;;;;;0.73;0.70;;;;;;;12.51;65.94;99832.91;5038406;28;19935;-16
2022/09/17 02:02:30;;;;;;;1.85;0.77;;;;;;;12.49;65.79;99834.75;5051289;28;20386;-16
2022/09/17 02:05:08;;;;;;;1.10;0.43;;;;;;;12.50;65.75;99839.97;5072165;28;20024;-16
2022/09/17 02:07:40;;;;;;;2.40;0.80;;;;;;;12.49;65.99;99842.66;5066311;28;20089;-16
2022/09/17 02:10:10;;;;;;;0.60;0.60;;;;;;;12.48;66.02;99836.53;5068046;28;20020;-16
2022/09/17 02:12:42;;;;;;;1.52;0.60;;;;;;;12.48;65.89;99836.53;5047085;28;20048;-16
2022/09/17 02:15:13;;;;;;;0.57;0.57;;;;;;;12.44;65.77;99835.75;5054890;28;20267;-16
2022/09/17 02:17:44;;;;;;;0.82;0.60;;;;;;;12.45;65.87;99837.47;5073439;28;20024;-16
2022/09/17 02:20:09;;;;;;;0.55;0.50;;;;;;;12.45;66.11;99839.25;5052617;28;20059;-16
2022/09/17 02:22:42;;;;;;;0.40;0.40;;;;;;;12.45;65.77;99839.25;5027892;28;20486;-16
2022/09/17 02:25:38;;;;;;;0.50;0.50;;;;;;;12.45;65.75;99844.56;5051295;28;20402;-16
2022/09/17 02:28:25;;;;;;;0.90;0.77;;;;;;;12.44;65.82;99837.53;5043419;28;20116;-16
2022/09/17 02:30:50;;;;;;;0.30;0.30;;;;;;;12.43;65.92;99833.16;5053648;28;20024;-16
2022/09/17 02:33:16;;;;;;;0.50;0.50;;;;;;;12.43;66.17;99841.94;5066079;28;20040;-16
2022/09/17 02:35:42;;;;;;;0.40;0.38;;;;;;;12.42;65.82;99842.88;5052663;28;20028;-16
2022/09/17 02:38:08;;;;;;;0.40;0.40;;;;;;;12.43;65.89;99839.31;5069774;28;20025;-17
2022/09/17 02:40:45;;;;;;;0.40;0.40;;;;;;;12.42;65.92;99852.56;5071458;28;20036;-17
2022/09/17 02:43:20;;;;;;;0.50;0.50;;;;;;;12.42;66.29;99842.88;5048948;28;20297;-16
2022/09/17 02:45:54;;;;;;;0.40;0.40;;;;;;;12.42;65.97;99842.88;5066339;28;20070;-16
2022/09/17 02:48:51;;;;;;;0.57;0.50;;;;;;;12.42;65.93;99847.28;5069968;28;20501;-16
2022/09/17 02:51:35;;;;;;;0.50;0.40;;;;;;;12.42;66.01;99847.28;5053644;28;20064;-16
2022/09/17 02:54:15;;;;;;;0.93;0.50;;;;;;;12.41;66.09;99845.56;5046340;28;20094;-16
2022/09/17 02:56:53;;;;;;;0.47;0.40;;;;;;;12.41;66.39;99850.84;5049659;28;20029;-16
2022/09/17 02:59:24;;;;;;;1.70;0.40;;;;;;;12.41;66.17;99840.28;5062580;28;20207;-16
2022/09/17 03:02:23;;;;;;;0.50;0.50;;;;;;;12.39;66.03;99848.25;5068498;28;20060;-16
2022/09/17 03:04:49;;;;;;;1.75;0.45;;;;;;;12.39;66.27;99848.25;5044372;28;20036;-16
2022/09/17 03:07:16;;;;;;;0.40;0.40;;;;;;;12.40;66.44;99844.69;5054118;28;20027;-17
2022/09/17 03:09:42;;;;;;;0.45;0.43;;;;;;;12.40;66.67;99847.34;5067723;28;20543;-16
2022/09/17 03:12:09;;;;;;;0.52;0.50;;;;;;;12.38;66.73;99840.38;5070397;28;20028;-16
2022/09/17 03:14:34;;;;;;;0.40;0.40;;;;;;;12.36;66.96;99843.03;5044225;28;20377;-17
2022/09/17 03:16:59;;;;;;;0.45;0.45;;;;;;;12.36;67.27;99842.16;5047028;28;20027;-16
2022/09/17 03:19:26;;;;;;;0.40;0.40;;;;;;;12.37;67.21;99850.06;5067812;28;20032;-16
2022/09/17 03:21:52;;;;;;;0.40;0.30;;;;;;;12.36;67.69;99842.16;5066503;28;20130;-16
2022/09/17 03:24:17;;;;;;;1.98;0.30;;;;;;;12.35;67.33;99851.91;5071653;28;20497;-16
2022/09/17 03:26:43;;;;;;;0.40;0.40;;;;;;;12.34;67.34;99854.59;5069270;28;20432;-16
2022/09/17 03:29:08;;;;;;;0.35;0.35;;;;;;;12.33;67.39;99859.00;5035150;28;21369;-17
2022/09/17 03:31:33;;;;;;;0.40;0.40;;;;;;;12.33;67.50;99853.72;5071363;28;20026;-16
2022/09/17 03:33:59;;;;;;;0.40;0.40;;;;;;;12.34;67.72;99854.59;5070548;28;20032;-16
2022/09/17 03:36:24;;;;;;;1.10;0.40;;;;;;;12.32;67.86;99857.28;5063322;28;20493;-16
2022/09/17 03:38:54;;;;;;;0.40;0.40;;;;;;;12.32;68.17;99854.63;5051566;28;20477;-16
2022/09/17 03:41:20;;;;;;;1.48;0.40;;;;;;;12.30;67.89;99853.78;5051989;28;20111;-16
2022/09/17 03:43:45;;;;;;;0.40;0.40;;;;;;;12.30;68.13;99849.38;5068732;28;20128;-16
2022/09/17 03:46:10;;;;;;;0.30;0.30;;;;;;;12.29;67.86;99846.78;5046530;28;20089;-16
2022/09/17 03:48:38;;;;;;;1.05;0.40;;;;;;;12.28;67.78;99858.28;5047623;28;20048;-16
2022/09/17 03:51:04;;;;;;;0.68;0.40;;;;;;;12.29;68.59;99854.72;5067996;28;20032;-16
2022/09/17 03:53:29;;;;;;;0.60;0.30;;;;;;;12.28;68.23;99856.47;5050740;28;20020;-17
2022/09/17 03:55:58;;;;;;;1.17;0.50;;;;;;;12.26;68.12;99852.16;5034322;28;20024;-16
2022/09/17 03:58:23;;;;;;;0.30;0.30;;;;;;;12.25;68.36;99861.00;5063999;28;20067;-16
2022/09/17 04:00:52;;;;;;;0.68;0.40;;;;;;;12.27;68.44;99861.84;5068171;28;20585;-16
2022/09/17 04:03:17;;;;;;;0.30;0.30;;;;;;;12.25;68.33;99863.66;5070633;28;20027;-16
2022/09/17 04:05:42;;;;;;;0.30;0.30;;;;;;;12.25;68.30;99866.28;5053725;28;20025;-16
2022/09/17 04:08:08;;;;;;;0.93;0.30;;;;;;;12.24;68.54;99865.41;5052763;28;20032;-16
2022/09/17 04:10:33;;;;;;;0.30;0.30;;;;;;;12.25;68.21;99861.00;5068541;28;20029;-16
2022/09/17 04:12:58;;;;;;;0.57;0.40;;;;;;;12.23;68.64;99858.41;5068528;28;20078;-17
2022/09/17 04:15:24;;;;;;;0.77;0.40;;;;;;;12.25;68.52;99861.00;5051844;28;20036;-16
2022/09/17 04:17:49;;;;;;;0.80;0.45;;;;;;;12.24;68.26;99859.28;5068608;28;20024;-17
2022/09/17 04:20:14;;;;;;;0.52;0.52;;;;;;;12.24;68.49;99859.28;5048153;28;20395;-16
2022/09/17 04:22:40;;;;;;;0.30;0.30;;;;;;;12.23;68.41;99854.88;5066830;28;20474;-16
2022/09/17 04:25:06;;;;;;;0.88;0.40;;;;;;;12.24;68.39;99861.94;5066842;28;20051;-17
2022/09/17 04:27:31;;;;;;;0.50;0.50;;;;;;;12.23;68.24;99858.41;5066427;28;20028;-16
2022/09/17 04:29:56;;;;;;;0.70;0.60;;;;;;;12.25;68.27;99867.16;5046267;28;20032;-16
2022/09/17 04:32:22;;;;;;;1.35;0.50;;;;;;;12.26;68.59;99868.03;5068365;28;20065;-16
2022/09/17 04:34:47;;;;;;;0.50;0.50;;;;;;;12.26;68.23;99868.03;5067495;28;20423;-16
2022/09/17 04:37:12;;;;;;;2.13;0.90;;;;;;;12.26;68.69;99868.03;5070580;28;20107;-16
2022/09/17 04:39:38;;;;;;;3.50;1.05;;;;;;;12.27;69.06;99873.25;5068352;28;20458;-16
2022/09/17 04:42:03;;;;;;;5.43;1.38;;;;;;;12.28;69.03;99887.38;5053635;28;20039;-16
2022/09/17 04:44:28;;;;;;;2.35;1.52;;;;;;;12.28;68.84;99882.06;5068607;28;20024;-16
2022/09/17 04:46:54;;;;;;;2.50;1.25;;;;;;;12.29;69.22;99884.69;5068948;28;20024;-16
2022/09/17 04:49:19;;;;;;;1.75;1.15;;;;;;;12.30;69.16;99886.41;5066545;28;20017;-16
2022/09/17 04:51:45;;;;;;;4.00;1.52;;;;;;;12.29;69.42;99892.59;5065231;28;20043;-16
2022/09/17 04:54:10;;;;;;;2.50;1.65;;;;;;;12.29;70.12;99894.38;5047242;28;20028;-16
2022/09/17 04:56:36;;;;;;;4.00;1.85;;;;;;;12.28;69.98;99896.13;5050484;28;20025;-16
2022/09/17 04:59:01;;;;;;;5.55;2.33;;;;;;;12.30;70.25;99893.44;5066104;28;20075;-16
2022/09/17 05:01:26;;;;;;;5.20;2.40;;;;;;;12.30;70.32;99901.38;5068107;28;20023;-16
2022/09/17 05:03:51;;;;;;;6.55;2.50;;;;;;;12.29;70.09;99897.00;5061753;28;21830;-16
2022/09/17 05:06:17;;;;;;;2.38;1.63;;;;;;;12.28;70.38;99904.06;5045139;28;20366;-16
2022/09/17 05:08:42;;;;;;;8.68;3.80;;;;;;;12.31;70.29;99908.44;5067333;28;20028;-16
2022/09/17 05:11:07;;;;;;;6.35;1.75;;;;;;;12.30;70.59;99918.13;5068540;28;20032;-16
2022/09/17 05:13:33;;;;;;;5.47;2.63;;;;;;;12.30;70.18;99912.84;5068338;28;20016;-16
2022/09/17 05:15:58;;;;;;;6.00;1.75;;;;;;;12.30;70.66;99917.25;5068573;28;20051;-16
2022/09/17 05:18:24;;;;;;;4.13;1.98;;;;;;;12.30;71.01;99904.03;5046684;28;20032;-16
2022/09/17 05:20:50;;;;;;;3.55;1.67;;;;;;;12.30;70.45;99912.84;5045148;28;20032;-16
2022/09/17 05:23:15;;;;;;;5.82;2.13;;;;;;;12.31;70.82;99913.72;5042030;28;20103;-16
2022/09/17 05:25:41;;;;;;;3.53;1.73;;;;;;;12.30;70.64;99918.13;5044454;28;20111;-17
2022/09/17 05:28:06;;;;;;;5.22;2.10;;;;;;;12.29;71.39;99918.16;5046208;28;20039;-16
2022/09/17 05:30:32;;;;;;;4.88;2.17;;;;;;;12.29;70.87;99911.13;5072033;28;20474;-16
2022/09/17 05:33:02;;;;;;;2.88;1.48;;;;;;;12.29;70.51;99926.09;5067103;28;20020;-16
2022/09/17 05:35:27;;;;;;;3.58;1.40;;;;;;;12.29;70.75;99928.75;5069459;28;20487;-16
2022/09/17 05:38:00;;;;;;;5.40;1.90;;;;;;;12.27;70.72;99926.13;5069205;28;20025;-16
2022/09/17 05:40:26;;;;;;;7.55;1.92;;;;;;;12.27;70.43;99927.94;5069807;28;20071;-16
2022/09/17 05:42:52;;;;;;;3.70;1.48;;;;;;;12.28;70.61;99940.25;5067059;28;20035;-16
2022/09/17 05:45:17;;;;;;;6.15;1.52;;;;;;;12.25;70.39;99932.38;5049269;28;20028;-16
2022/09/17 05:47:42;;;;;;;3.00;1.65;;;;;;;12.25;70.70;99938.56;5073186;28;20358;-16
2022/09/17 05:50:08;;;;;;;4.63;1.70;;;;;;;12.25;70.63;99945.59;5074276;28;20374;-17
2022/09/17 05:52:33;;;;;;;3.88;1.55;;;;;;;12.25;70.79;99948.25;5073075;28;20473;-16
2022/09/17 05:54:59;;;;;;;3.15;2.58;;;;;;;12.23;70.71;99945.66;5070731;28;20052;-16
2022/09/17 05:57:27;;;;;;;4.40;1.70;;;;;;;12.23;70.56;99952.69;5053468;28;20033;-16
2022/09/17 05:59:53;;;;;;;5.10;1.40;;;;;;;12.23;70.72;99945.66;5067117;28;20028;-16
2022/09/17 06:02:18;;;;;;;3.15;1.52;;;;;;;12.23;70.64;99958.00;5066760;28;20371;-17
2022/09/17 06:04:44;;;;;;;2.95;1.58;;;;;;;12.25;70.73;99953.53;5067884;28;20031;-16
2022/09/17 06:07:10;;;;;;;4.72;1.50;;;;;;;12.25;70.92;99956.19;5069600;28;20078;-16
2022/09/17 06:09:36;;;;;;;2.85;1.33;;;;;;;12.25;70.53;99962.34;5050896;28;20029;-16
2022/09/17 06:12:03;;;;;;;4.63;1.10;;;;;;;12.26;71.16;99957.91;5066241;28;20081;-16
2022/09/17 06:14:28;;;;;;;4.57;1.75;;;;;;;12.27;70.68;99963.16;5046885;28;20027;-16
2022/09/17 06:16:54;;;;;;;3.08;1.50;;;;;;;12.29;71.01;99960.47;5071355;28;20095;-17
2022/09/17 06:19:20;;;;;;;7.55;2.03;;;;;;;12.29;70.97;99956.06;5066745;28;20389;-16
2022/09/17 06:21:46;;;;;;;5.38;1.75;;;;;;;12.31;71.00;99961.31;5052171;28;20470;-16
2022/09/17 06:24:11;;;;;;;5.80;1.63;;;;;;;12.34;71.11;99966.50;5070530;28;20040;-16
2022/09/17 06:26:37;;;;;;;5.90;1.75;;;;;;;12.35;71.62;99968.25;5062250;28;20465;-17
2022/09/17 06:29:02;;;;;;;6.68;1.35;;;;;;;12.37;71.39;99970.84;5066323;28;20037;-16
2022/09/17 06:31:28;;;;;;;6.05;1.95;;;;;;;12.39;71.48;99969.00;5054859;28;20441;-16
2022/09/17 06:33:55;;;;;;;2.58;1.42;;;;;;;12.40;71.15;99971.63;5046884;28;20023;-17
2022/09/17 06:36:20;;;;;;;3.22;1.85;;;;;;;12.41;70.68;99967.22;5066664;28;20029;-16
2022/09/17 06:38:46;;;;;;;5.85;1.85;;;;;;;12.42;70.90;99971.59;5062041;28;20038;-16
2022/09/17 06:41:13;;;;;;;3.80;1.65;;;;;;;12.42;70.56;99969.81;5064489;28;20036;-16
2022/09/17 06:43:38;;;;;;;4.97;1.77;;;;;;;12.43;70.54;99971.53;5052456;28;20449;-16
2022/09/17 06:46:05;;;;;;;12.75;2.90;;;;;;;12.44;70.71;99961.84;5066117;28;20106;-16
2022/09/17 06:48:32;;;;;;;4.43;1.35;;;;;;;12.44;70.70;99962.69;5067432;28;20460;-17
2022/09/17 06:51:02;;;;;;;2.85;1.40;;;;;;;12.49;70.69;99969.63;5050045;28;20036;-16
2022/09/17 06:53:29;;;;;;;3.35;1.45;;;;;;;12.52;70.65;99969.53;5067206;28;20488;-16
2022/09/17 06:55:56;;;;;;;5.90;1.65;;;;;;;12.54;70.33;99973.03;5035408;28;20053;-16
2022/09/17 06:58:21;;;;;;;4.50;1.73;;;;;;;12.53;69.98;99971.25;5054278;28;20394;-16
2022/09/17 07:00:46;;;;;;;5.10;1.40;;;;;;;12.54;70.06;99973.03;5071066;28;20039;-16
2022/09/17 07:03:12;;;;;;;5.10;2.03;;;;;;;12.58;70.22;99974.66;5068375;28;20024;-17
2022/09/17 07:05:37;;;;;;;5.88;1.73;;;;;;;12.63;70.04;99972.75;5070670;28;20029;-17
2022/09/17 07:08:03;;;;;;;4.55;1.30;;;;;;;12.67;70.02;99984.13;5047148;28;20025;-16
2022/09/17 07:10:29;;;;;;;5.22;1.30;;;;;;;12.67;69.30;99978.81;5066490;28;20598;-17
2022/09/17 07:12:55;;;;;;;4.10;1.30;;;;;;;12.70;69.39;99984.88;5071532;28;20103;-16
2022/09/17 07:15:21;;;;;;;3.97;1.17;;;;;;;12.75;69.45;99975.94;5050687;28;20107;-16
2022/09/17 07:17:47;;;;;;;7.20;2.08;;;;;;;12.80;69.11;99976.66;5066915;28;20157;-17
2022/09/17 07:20:13;;;;;;;8.07;1.55;;;;;;;12.80;68.58;99968.72;5064279;28;20118;-16
2022/09/17 07:22:39;;;;;;;3.90;1.65;;;;;;;12.85;68.68;99973.88;5053580;28;20028;-16
2022/09/17 07:25:05;;;;;;;4.82;1.00;;;;;;;12.89;68.74;99976.41;5053173;28;20021;-16
2022/09/17 07:27:30;;;;;;;4.07;1.40;;;;;;;12.91;68.22;99974.56;5070095;28;20101;-16
2022/09/17 07:29:56;;;;;;;5.72;2.47;;;;;;;12.95;67.75;99975.34;5052986;28;20013;-17
2022/09/17 07:32:22;;;;;;;4.97;1.60;;;;;;;12.93;67.90;99964.81;5066356;28;20077;-16
2022/09/17 07:34:48;;;;;;;3.92;1.23;;;;;;;12.98;67.39;99974.38;5069743;28;20031;-16
2022/09/17 07:37:14;;;;;;;4.28;1.33;;;;;;;13.00;67.07;99988.47;5063010;28;20484;-17
2022/09/17 07:39:40;;;;;;;4.65;1.10;;;;;;;13.02;66.89;99983.97;5069343;28;20020;-16
2022/09/17 07:42:05;;;;;;;3.92;1.40;;;;;;;13.04;67.03;99988.28;5046090;28;20039;-17
2022/09/17 07:44:30;;;;;;;4.95;1.30;;;;;;;13.06;67.15;99981.19;5068554;28;20033;-17
2022/09/17 07:46:56;;;;;;;5.10;1.45;;;;;;;13.12;66.57;99976.59;5069482;28;20021;-16
2022/09/17 07:49:21;;;;;;;5.22;1.42;;;;;;;13.20;67.20;99985.19;5051070;28;20044;-16
2022/09/17 07:51:47;;;;;;;1.80;0.88;;;;;;;13.25;66.63;99979.75;5067618;28;20469;-16
2022/09/17 07:54:12;;;;;;;3.42;1.20;;;;;;;13.23;66.21;99986.88;5067159;28;20036;-16
2022/09/17 07:56:37;;;;;;;5.18;1.63;;;;;;;13.25;66.66;99988.56;5062808;28;20107;-17
2022/09/17 07:59:03;;;;;;;3.50;1.30;;;;;;;13.29;66.90;99982.25;5048281;28;20033;-16
2022/09/17 08:01:32;;;;;;;4.05;1.20;;;;;;;13.33;67.19;99993.59;5068564;28;20035;-16
2022/09/17 08:03:58;;;;;;;1.85;1.08;;;;;;;13.34;66.39;99990.06;5066533;28;20124;-17
2022/09/17 08:06:25;;;;;;;3.97;1.13;;;;;;;13.38;65.93;99996.13;5046111;28;20119;-16
2022/09/17 08:08:51;;;;;;;3.70;1.15;;;;;;;13.37;65.74;99992.59;5065032;28;20532;-17
2022/09/17 08:11:19;;;;;;;3.05;0.90;;;;;;;13.41;65.82;99996.88;5066561;28;20052;-16
2022/09/17 08:13:49;;;;;;;3.38;1.00;;;;;;;13.46;65.54;99992.31;5068022;28;20027;-16
2022/09/17 08:16:14;;;;;;;4.20;1.20;;;;;;;13.47;65.82;100002.00;5052135;28;20029;-16
2022/09/17 08:18:41;;;;;;;3.10;0.95;;;;;;;13.53;65.58;100008.03;5043044;28;20095;-16
2022/09/17 08:21:09;;;;;;;6.28;1.52;;;;;;;13.44;65.62;100002.06;5068624;28;20024;-16
2022/09/17 08:23:36;;;;;;;9.52;1.92;;;;;;;13.42;65.63;100005.69;5064100;28;20021;-17
2022/09/17 08:26:03;;;;;;;3.13;1.08;;;;;;;13.13;65.32;100003.03;5044808;28;20417;-16
2022/09/17 08:28:30;;;;;;;7.22;1.75;;;;;;;13.43;63.55;100012.72;5063156;28;20508;-16
